Time;durP1;ratioP1;P1;durP2;ratioP2;P2;SDS_P1;SDS_P2;PMS_P1;PMS_P2;Temp;Humidity;BMP_temperature;BMP_pressure;BME280_temperature;BME280_humidity;BME280_pressure;Samples;Min_cycle;Max_cycle;Signal;HPM_P1;HPM_P2
2021/03/28 00:00:50;;;;;;;11.82;8.27;;;;;;;;;;4943804;28;20044;-66
2021/03/28 00:03:19;;;;;;;12.45;9.60;;;;;;;;;;4932285;28;20479;-66
2021/03/28 00:05:45;;;;;;;12.43;11.00;;;;;;;;;;4945921;29;20071;-66
2021/03/28 00:08:13;;;;;;;30.95;13.27;;;;;;;;;;4943110;28;20090;-66
2021/03/28 00:10:40;;;;;;;15.60;13.85;;;;;;;;;;4941534;29;20383;-66
2021/03/28 00:13:12;;;;;;;16.02;14.40;;;;;;;;;;4942822;28;20050;-66
2021/03/28 00:15:39;;;;;;;14.45;12.75;;;;;;;;;;4938229;29;20023;-66
2021/03/28 00:18:07;;;;;;;17.35;14.45;;;;;;;;;;4942856;28;20137;-65
2021/03/28 00:20:33;;;;;;;18.55;13.98;;;;;;;;;;4938221;29;20040;-65
2021/03/28 00:22:59;;;;;;;18.88;14.82;;;;;;;;;;4943262;28;20054;-66
2021/03/28 00:25:36;;;;;;;22.05;12.20;;;;;;;;;;4940622;29;20479;-66
2021/03/28 00:28:03;;;;;;;25.85;13.80;;;;;;;;;;4942175;29;20026;-66
2021/03/28 00:30:31;;;;;;;24.55;15.90;;;;;;;;;;4942447;28;20043;-66
2021/03/28 00:33:01;;;;;;;23.52;16.08;;;;;;;;;;4942741;28;20046;-65
2021/03/28 00:35:32;;;;;;;32.50;18.55;;;;;;;;;;4941998;29;20068;-66
2021/03/28 00:38:07;;;;;;;23.27;16.15;;;;;;;;;;4941938;29;20106;-66
2021/03/28 00:40:33;;;;;;;21.83;16.55;;;;;;;;;;4944504;29;20031;-66
2021/03/28 00:43:10;;;;;;;23.50;17.13;;;;;;;;;;4942734;28;20019;-66
2021/03/28 00:45:44;;;;;;;20.42;13.80;;;;;;;;;;4940737;29;20028;-66
2021/03/28 00:48:13;;;;;;;19.38;11.10;;;;;;;;;;4942126;28;20028;-66
2021/03/28 00:50:41;;;;;;;16.13;12.18;;;;;;;;;;4940999;29;20020;-66
2021/03/28 00:53:08;;;;;;;14.68;8.70;;;;;;;;;;4940849;29;20410;-66
2021/03/28 00:55:33;;;;;;;16.58;11.55;;;;;;;;;;4941584;29;20054;-66
2021/03/28 00:58:04;;;;;;;12.43;8.93;;;;;;;;;;4943304;29;20058;-66
2021/03/28 01:00:38;;;;;;;17.90;10.55;;;;;;;;;;4941091;29;20122;-66
2021/03/28 01:03:08;;;;;;;15.18;12.23;;;;;;;;;;4942254;29;20055;-66
2021/03/28 01:05:36;;;;;;;13.38;11.38;;;;;;;;;;4941882;29;20416;-66
2021/03/28 01:08:05;;;;;;;15.65;11.75;;;;;;;;;;4936692;28;20098;-66
2021/03/28 01:10:36;;;;;;;11.95;10.80;;;;;;;;;;4942009;29;20475;-65
2021/03/28 01:13:04;;;;;;;14.18;12.05;;;;;;;;;;4940501;28;20030;-66
2021/03/28 01:15:42;;;;;;;15.93;10.38;;;;;;;;;;4941509;29;20573;-66
2021/03/28 01:18:25;;;;;;;12.65;8.63;;;;;;;;;;4939583;29;20023;-65
2021/03/28 01:20:59;;;;;;;12.15;7.45;;;;;;;;;;4942517;29;20474;-66
2021/03/28 01:23:42;;;;;;;9.25;8.25;;;;;;;;;;4939196;29;20086;-66
2021/03/28 01:26:15;;;;;;;13.68;7.65;;;;;;;;;;4940658;29;20395;-65
2021/03/28 01:28:57;;;;;;;16.20;7.72;;;;;;;;;;4941175;29;20020;-66
2021/03/28 01:31:22;;;;;;;10.68;4.95;;;;;;;;;;4940215;29;20094;-66
2021/03/28 01:33:56;;;;;;;6.80;5.13;;;;;;;;;;4943353;29;20071;-66
2021/03/28 01:37:00;;;;;;;22.58;7.35;;;;;;;;;;4940339;29;20024;-66
2021/03/28 01:39:27;;;;;;;6.95;5.60;;;;;;;;;;4878661;29;20093;-65
2021/03/28 01:41:55;;;;;;;8.35;5.88;;;;;;;;;;4886451;29;20475;-65
2021/03/28 01:44:27;;;;;;;9.05;6.47;;;;;;;;;;4910536;29;20035;-64
2021/03/28 01:46:59;;;;;;;19.55;6.55;;;;;;;;;;4939691;29;20015;-64
2021/03/28 01:49:28;;;;;;;10.82;7.90;;;;;;;;;;4941114;29;20116;-64
2021/03/28 01:52:19;;;;;;;11.15;6.30;;;;;;;;;;4943030;29;20019;-64
2021/03/28 01:54:44;;;;;;;;;;;;;;;;;;4941432;29;20038;-64
2021/03/28 01:57:21;;;;;;;18.80;6.57;;;;;;;;;;4948925;28;19915;-64
2021/03/28 02:00:05;;;;;;;15.48;6.88;;;;;;;;;;4947232;29;20050;-64
2021/03/28 02:02:42;;;;;;;7.97;6.63;;;;;;;;;;4945935;28;20059;-64
2021/03/28 02:05:13;;;;;;;10.00;7.18;;;;;;;;;;4949141;28;20106;-64
2021/03/28 02:07:42;;;;;;;17.38;7.20;;;;;;;;;;4945433;29;20034;-64
2021/03/28 02:10:25;;;;;;;24.00;8.00;;;;;;;;;;4949200;28;20409;-64
2021/03/28 02:12:58;;;;;;;20.75;9.68;;;;;;;;;;4948747;29;20451;-64
2021/03/28 02:15:24;;;;;;;20.02;9.05;;;;;;;;;;4940841;28;20418;-64
2021/03/28 02:17:55;;;;;;;10.02;6.97;;;;;;;;;;4948284;29;20027;-64
2021/03/28 02:20:39;;;;;;;7.25;5.40;;;;;;;;;;4947781;28;20370;-64
2021/03/28 02:23:19;;;;;;;10.43;5.65;;;;;;;;;;4942488;29;20030;-63
2021/03/28 02:25:53;;;;;;;10.18;7.18;;;;;;;;;;4941896;29;20019;-64
2021/03/28 02:28:37;;;;;;;25.10;11.82;;;;;;;;;;4942900;29;20056;-64
2021/03/28 02:31:02;;;;;;;12.88;9.18;;;;;;;;;;4943468;28;20086;-64
2021/03/28 02:33:33;;;;;;;22.60;9.45;;;;;;;;;;4949833;28;20059;-64
2021/03/28 02:36:19;;;;;;;10.25;6.82;;;;;;;;;;4952106;28;20481;-64
2021/03/28 02:38:59;;;;;;;19.90;8.75;;;;;;;;;;4945550;29;20063;-64
2021/03/28 02:41:34;;;;;;;15.90;8.50;;;;;;;;;;4948575;29;20031;-64
2021/03/28 02:44:18;;;;;;;18.30;11.75;;;;;;;;;;4953741;28;20456;-64
2021/03/28 02:47:02;;;;;;;17.25;13.32;;;;;;;;;;4949713;29;20491;-64
2021/03/28 02:49:30;;;;;;;18.42;12.77;;;;;;;;;;4949823;29;20019;-64
2021/03/28 02:52:03;;;;;;;27.30;11.40;;;;;;;;;;4951857;29;20456;-64
2021/03/28 02:54:35;;;;;;;28.60;11.18;;;;;;;;;;4949812;28;20402;-64
2021/03/28 02:57:03;;;;;;;20.48;11.45;;;;;;;;;;4942851;28;20432;-64
2021/03/28 02:59:32;;;;;;;20.48;10.05;;;;;;;;;;4949031;29;20023;-64
2021/03/28 03:02:07;;;;;;;11.40;9.18;;;;;;;;;;4946315;29;20055;-64
2021/03/28 03:04:51;;;;;;;13.27;9.85;;;;;;;;;;4949657;28;20037;-64
2021/03/28 03:07:19;;;;;;;15.90;8.55;;;;;;;;;;4950270;28;20049;-64
2021/03/28 03:09:44;;;;;;;16.33;7.68;;;;;;;;;;4944768;29;20097;-64
2021/03/28 03:12:21;;;;;;;10.82;7.70;;;;;;;;;;4951280;28;20031;-64
2021/03/28 03:14:46;;;;;;;13.35;5.97;;;;;;;;;;4950223;29;20035;-64
2021/03/28 03:17:14;;;;;;;7.57;6.07;;;;;;;;;;4950919;28;20082;-64
2021/03/28 03:19:56;;;;;;;8.70;4.53;;;;;;;;;;4948506;29;20058;-64
2021/03/28 03:22:28;;;;;;;10.88;6.30;;;;;;;;;;4948169;28;20130;-64
2021/03/28 03:25:11;;;;;;;5.82;3.92;;;;;;;;;;4943666;29;20382;-64
2021/03/28 03:27:39;;;;;;;13.13;7.93;;;;;;;;;;4949127;28;20027;-64
2021/03/28 03:30:16;;;;;;;8.07;6.15;;;;;;;;;;4951485;28;20347;-64
2021/03/28 03:32:44;;;;;;;10.20;5.90;;;;;;;;;;4948113;29;20027;-64
2021/03/28 03:35:13;;;;;;;10.00;5.97;;;;;;;;;;4951165;28;20035;-64
2021/03/28 03:37:44;;;;;;;12.60;7.88;;;;;;;;;;4947649;29;20163;-64
2021/03/28 03:40:12;;;;;;;9.27;6.95;;;;;;;;;;4951567;28;20030;-64
2021/03/28 03:42:37;;;;;;;53.58;28.63;;;;;;;;;;4946331;29;20035;-64
2021/03/28 03:45:15;;;;;;;85.45;42.60;;;;;;;;;;4950978;29;20015;-64
2021/03/28 03:47:52;;;;;;;88.45;46.92;;;;;;;;;;4947650;29;20040;-64
2021/03/28 03:50:21;;;;;;;60.58;34.30;;;;;;;;;;4950304;28;20056;-65
2021/03/28 03:53:04;;;;;;;37.10;23.30;;;;;;;;;;4949747;29;20027;-64
2021/03/28 03:55:36;;;;;;;68.82;48.78;;;;;;;;;;4948401;28;20027;-64
2021/03/28 03:58:01;;;;;;;;;;;;;;;;;;4950939;29;20116;-64
2021/03/28 04:00:28;;;;;;;14.73;11.25;;;;;;;;;;4951427;28;19914;-64
2021/03/28 04:03:12;;;;;;;12.35;7.60;;;;;;;;;;4950595;28;20055;-66
2021/03/28 04:05:40;;;;;;;14.63;7.22;;;;;;;;;;4947720;29;20035;-66
2021/03/28 04:08:06;;;;;;;10.70;8.07;;;;;;;;;;4940776;29;20023;-65
2021/03/28 04:11:00;;;;;;;10.77;7.28;;;;;;;;;;4949610;29;20085;-65
2021/03/28 04:13:26;;;;;;;14.65;7.68;;;;;;;;;;4950691;28;20031;-64
2021/03/28 04:15:54;;;;;;;9.13;5.90;;;;;;;;;;4950198;28;20431;-66
2021/03/28 04:18:19;;;;;;;11.07;5.15;;;;;;;;;;4950460;28;20454;-66
2021/03/28 04:20:47;;;;;;;8.20;6.80;;;;;;;;;;4945361;29;20034;-65
2021/03/28 04:23:30;;;;;;;10.02;7.07;;;;;;;;;;4944974;28;20031;-65
2021/03/28 04:25:55;;;;;;;15.43;8.38;;;;;;;;;;4940768;29;20046;-65
2021/03/28 04:28:44;;;;;;;13.75;8.40;;;;;;;;;;4948882;28;20023;-66
2021/03/28 04:31:09;;;;;;;26.92;12.10;;;;;;;;;;4943922;29;20031;-65
2021/03/28 04:33:37;;;;;;;10.75;9.65;;;;;;;;;;4950022;29;20103;-65
2021/03/28 04:36:16;;;;;;;16.42;8.55;;;;;;;;;;4951302;28;20031;-66
2021/03/28 04:38:41;;;;;;;18.17;6.03;;;;;;;;;;4949955;29;20089;-66
2021/03/28 04:41:06;;;;;;;10.27;8.40;;;;;;;;;;4950108;28;20027;-65
2021/03/28 04:43:32;;;;;;;14.82;8.15;;;;;;;;;;4948366;28;20035;-66
2021/03/28 04:46:16;;;;;;;7.28;5.40;;;;;;;;;;4946553;28;20015;-66
2021/03/28 04:48:47;;;;;;;8.80;7.00;;;;;;;;;;4949554;29;20134;-65
2021/03/28 04:51:21;;;;;;;10.90;5.40;;;;;;;;;;4949536;28;20031;-66
2021/03/28 04:54:18;;;;;;;7.00;5.25;;;;;;;;;;4937248;29;20047;-66
2021/03/28 04:56:53;;;;;;;6.80;5.72;;;;;;;;;;4948301;28;20027;-67
2021/03/28 04:59:21;;;;;;;6.90;5.40;;;;;;;;;;4946872;29;20027;-67
2021/03/28 05:01:47;;;;;;;7.70;6.88;;;;;;;;;;4941122;29;20063;-67
2021/03/28 05:04:20;;;;;;;12.57;5.57;;;;;;;;;;4948266;28;20037;-67
2021/03/28 05:06:51;;;;;;;9.38;6.45;;;;;;;;;;4948593;29;20351;-66
2021/03/28 05:09:26;;;;;;;21.27;9.20;;;;;;;;;;4945294;29;20027;-67
2021/03/28 05:11:57;;;;;;;10.73;6.82;;;;;;;;;;4949874;29;20023;-67
2021/03/28 05:14:42;;;;;;;17.75;8.13;;;;;;;;;;4950108;28;20041;-65
2021/03/28 05:17:18;;;;;;;13.48;6.35;;;;;;;;;;4947855;28;20035;-65
2021/03/28 05:20:02;;;;;;;11.88;5.65;;;;;;;;;;4936761;29;20027;-66
2021/03/28 05:22:34;;;;;;;11.27;5.07;;;;;;;;;;4948004;28;20027;-65
2021/03/28 05:25:02;;;;;;;8.45;4.38;;;;;;;;;;4950554;28;20058;-66
2021/03/28 05:27:33;;;;;;;13.48;5.72;;;;;;;;;;4948100;28;20170;-65
2021/03/28 05:29:58;;;;;;;;;;;;;;;;;;4951146;28;20388;-66
2021/03/28 05:32:29;;;;;;;12.73;6.70;;;;;;;;;;4949388;28;19914;-65
2021/03/28 05:34:58;;;;;;;9.07;6.28;;;;;;;;;;4950278;28;20538;-66
2021/03/28 05:37:23;;;;;;;9.43;8.25;;;;;;;;;;4949367;28;20509;-66
2021/03/28 05:40:08;;;;;;;16.00;8.07;;;;;;;;;;4949207;28;20027;-65
2021/03/28 05:42:33;;;;;;;10.82;6.68;;;;;;;;;;4948813;28;20122;-65
2021/03/28 05:44:59;;;;;;;9.05;6.30;;;;;;;;;;4946220;28;20095;-66
2021/03/28 05:47:24;;;;;;;5.10;4.47;;;;;;;;;;4947640;29;20031;-66
2021/03/28 05:49:58;;;;;;;18.88;8.60;;;;;;;;;;4949022;28;20041;-66
2021/03/28 05:52:39;;;;;;;10.40;7.55;;;;;;;;;;4947976;28;20031;-66
2021/03/28 05:55:26;;;;;;;13.88;11.70;;;;;;;;;;4941539;29;20075;-66
2021/03/28 05:58:00;;;;;;;12.63;7.97;;;;;;;;;;4949991;28;20035;-65
2021/03/28 06:00:26;;;;;;;9.95;6.75;;;;;;;;;;4943236;29;20027;-65
2021/03/28 06:02:57;;;;;;;10.23;7.40;;;;;;;;;;4949839;28;20110;-67
2021/03/28 06:05:25;;;;;;;9.30;7.93;;;;;;;;;;4949458;28;20019;-66
2021/03/28 06:08:09;;;;;;;11.10;6.28;;;;;;;;;;4942113;28;20051;-67
2021/03/28 06:10:51;;;;;;;7.43;4.82;;;;;;;;;;4951245;29;20031;-66
2021/03/28 06:13:31;;;;;;;16.98;7.03;;;;;;;;;;4951821;28;20042;-66
2021/03/28 06:16:09;;;;;;;19.85;6.70;;;;;;;;;;4945851;29;20031;-66
2021/03/28 06:18:53;;;;;;;11.98;6.68;;;;;;;;;;4949887;28;20031;-67
2021/03/28 06:21:33;;;;;;;21.27;7.88;;;;;;;;;;4950527;29;20466;-67
2021/03/28 06:24:07;;;;;;;8.07;5.72;;;;;;;;;;4947359;29;20059;-68
2021/03/28 06:26:42;;;;;;;7.43;5.80;;;;;;;;;;4950717;28;20333;-67
2021/03/28 06:29:10;;;;;;;12.75;7.38;;;;;;;;;;4953476;28;20443;-66
2021/03/28 06:31:54;;;;;;;10.38;6.45;;;;;;;;;;4952412;28;20367;-67
2021/03/28 06:34:19;;;;;;;11.27;6.20;;;;;;;;;;4951476;28;20410;-67
2021/03/28 06:37:03;;;;;;;9.45;5.97;;;;;;;;;;4952835;29;20030;-66
2021/03/28 06:39:47;;;;;;;17.27;8.50;;;;;;;;;;4950533;28;20031;-66
2021/03/28 06:42:22;;;;;;;16.25;10.30;;;;;;;;;;4950214;29;20027;-66
2021/03/28 06:44:59;;;;;;;10.13;7.50;;;;;;;;;;4945901;29;20043;-67
2021/03/28 06:47:54;;;;;;;8.23;5.78;;;;;;;;;;4952097;28;20114;-67
2021/03/28 06:50:22;;;;;;;9.32;7.38;;;;;;;;;;4899868;28;20036;-67
2021/03/28 06:53:06;;;;;;;11.73;7.60;;;;;;;;;;4943944;29;20070;-66
2021/03/28 06:55:39;;;;;;;21.48;6.85;;;;;;;;;;4951366;28;20101;-66
2021/03/28 06:58:16;;;;;;;17.17;8.00;;;;;;;;;;4953056;28;20065;-67
2021/03/28 07:00:41;;;;;;;8.90;4.68;;;;;;;;;;4951612;29;20038;-67
2021/03/28 07:03:07;;;;;;;18.83;10.00;;;;;;;;;;4948110;28;20452;-67
2021/03/28 07:05:52;;;;;;;16.60;9.95;;;;;;;;;;4949249;29;20031;-67
2021/03/28 07:08:28;;;;;;;15.93;9.48;;;;;;;;;;4918090;29;20043;-66
2021/03/28 07:11:12;;;;;;;13.40;8.85;;;;;;;;;;4939099;29;20019;-67
2021/03/28 07:13:37;;;;;;;23.52;8.23;;;;;;;;;;4946321;29;20028;-67
2021/03/28 07:16:21;;;;;;;14.68;9.13;;;;;;;;;;4951475;28;20355;-67
2021/03/28 07:19:09;;;;;;;16.25;5.90;;;;;;;;;;4951707;29;20031;-67
2021/03/28 07:21:53;;;;;;;8.00;6.53;;;;;;;;;;4937706;29;20063;-66
2021/03/28 07:24:33;;;;;;;13.38;9.45;;;;;;;;;;4951505;28;20479;-66
2021/03/28 07:27:28;;;;;;;15.82;12.80;;;;;;;;;;4946275;29;20038;-66
2021/03/28 07:30:12;;;;;;;18.98;10.77;;;;;;;;;;4883743;28;20106;-67
2021/03/28 07:32:40;;;;;;;10.35;7.30;;;;;;;;;;4949837;29;20047;-67
2021/03/28 07:35:24;;;;;;;8.20;7.40;;;;;;;;;;4950978;28;20327;-66
2021/03/28 07:37:52;;;;;;;18.20;6.35;;;;;;;;;;4946524;28;20034;-65
2021/03/28 07:40:36;;;;;;;8.93;6.63;;;;;;;;;;4951485;28;20035;-65
2021/03/28 07:43:19;;;;;;;15.30;6.82;;;;;;;;;;4946517;29;20035;-65
2021/03/28 07:45:47;;;;;;;11.20;9.57;;;;;;;;;;4949215;29;20023;-65
2021/03/28 07:48:29;;;;;;;18.38;10.68;;;;;;;;;;4947335;29;20030;-65
2021/03/28 07:51:09;;;;;;;19.17;10.75;;;;;;;;;;4944153;29;20031;-65
2021/03/28 07:53:38;;;;;;;17.08;8.25;;;;;;;;;;4947845;29;20119;-66
2021/03/28 07:56:09;;;;;;;7.78;5.90;;;;;;;;;;4946071;29;20082;-65
2021/03/28 07:58:34;;;;;;;;;;;;;;;;;;4945102;28;20023;-65
2021/03/28 08:01:13;;;;;;;18.33;16.20;;;;;;;;;;4946037;28;20389;-65
2021/03/28 08:03:57;;;;;;;15.20;6.88;;;;;;;;;;4946184;28;20297;-65
2021/03/28 08:06:41;;;;;;;8.93;6.35;;;;;;;;;;4946022;29;20442;-65
2021/03/28 08:09:09;;;;;;;7.03;4.57;;;;;;;;;;4942837;29;20436;-65
2021/03/28 08:11:34;;;;;;;11.90;6.10;;;;;;;;;;4948921;28;20035;-65
2021/03/28 08:14:32;;;;;;;8.55;7.70;;;;;;;;;;4947290;28;20023;-65
2021/03/28 08:16:58;;;;;;;8.13;6.90;;;;;;;;;;4935805;29;20043;-66
2021/03/28 08:19:29;;;;;;;9.07;6.43;;;;;;;;;;4950103;28;20382;-66
2021/03/28 08:21:58;;;;;;;21.13;5.70;;;;;;;;;;4951264;28;20027;-66
2021/03/28 08:24:35;;;;;;;10.80;5.47;;;;;;;;;;4949738;28;20082;-64
2021/03/28 08:27:00;;;;;;;9.15;6.13;;;;;;;;;;4945628;29;20023;-66
2021/03/28 08:29:32;;;;;;;13.05;6.93;;;;;;;;;;4947620;28;20082;-66
2021/03/28 08:32:12;;;;;;;10.48;6.15;;;;;;;;;;4944598;29;20058;-63
2021/03/28 08:34:56;;;;;;;6.68;4.60;;;;;;;;;;4948166;29;20028;-64
2021/03/28 08:37:36;;;;;;;8.80;7.90;;;;;;;;;;4946257;28;20417;-65
2021/03/28 08:40:08;;;;;;;21.13;9.75;;;;;;;;;;4942109;29;20157;-67
2021/03/28 08:42:33;;;;;;;;;;;;;;;;;;4943944;28;20035;-65
2021/03/28 08:45:17;;;;;;;23.70;9.13;;;;;;;;;;4950948;28;19910;-65
2021/03/28 08:47:42;;;;;;;18.48;7.93;;;;;;;;;;4943905;29;20150;-66
2021/03/28 08:50:10;;;;;;;18.50;13.15;;;;;;;;;;4949614;28;20159;-65
2021/03/28 08:52:45;;;;;;;17.25;9.30;;;;;;;;;;4949380;29;20024;-65
2021/03/28 08:55:30;;;;;;;14.35;12.60;;;;;;;;;;4950781;28;20027;-66
2021/03/28 08:58:04;;;;;;;24.33;14.65;;;;;;;;;;4950316;29;20070;-66
2021/03/28 09:00:36;;;;;;;24.73;17.30;;;;;;;;;;4947473;28;20047;-66
2021/03/28 09:03:01;;;;;;;;;;;;;;;;;;4943898;29;20051;-66
2021/03/28 09:05:26;;;;;;;27.35;15.80;;;;;;;;;;4949027;28;20325;-66
2021/03/28 09:08:10;;;;;;;24.88;16.58;;;;;;;;;;4944461;29;20042;-66
2021/03/28 09:10:42;;;;;;;18.33;13.55;;;;;;;;;;4939129;29;20034;-66
2021/03/28 09:13:08;;;;;;;24.98;16.67;;;;;;;;;;4934176;29;20431;-65
2021/03/28 09:15:52;;;;;;;22.35;16.17;;;;;;;;;;4939540;29;20032;-73
2021/03/28 09:18:17;;;;;;;22.60;14.48;;;;;;;;;;4938247;29;20038;-74
2021/03/28 09:20:46;;;;;;;28.13;12.00;;;;;;;;;;4939837;29;20019;-69
2021/03/28 09:23:30;;;;;;;34.15;19.77;;;;;;;;;;4935008;29;20027;-69
2021/03/28 09:26:01;;;;;;;21.00;14.43;;;;;;;;;;4934286;29;20364;-68
2021/03/28 09:28:45;;;;;;;18.67;14.90;;;;;;;;;;4939754;29;20142;-69
2021/03/28 09:31:22;;;;;;;18.80;11.77;;;;;;;;;;4940843;29;20019;-68
2021/03/28 09:33:53;;;;;;;11.43;8.35;;;;;;;;;;4935175;29;20031;-68
2021/03/28 09:36:18;;;;;;;;;;;;;;;;;;4935883;29;20043;-69
2021/03/28 09:39:02;;;;;;;9.20;5.60;;;;;;;;;;4938893;29;19934;-65
2021/03/28 09:44:35;;;;;;;24.98;8.02;;;;;;;;;;4922443;29;20057;-67
2021/03/28 09:47:19;;;;;;;21.55;11.93;;;;;;;;;;4931120;29;20110;-68
2021/03/28 09:49:47;;;;;;;14.82;10.68;;;;;;;;;;4943792;29;20576;-68
2021/03/28 09:52:21;;;;;;;34.10;24.08;;;;;;;;;;4947732;29;20027;-68
2021/03/28 09:54:49;;;;;;;32.28;23.40;;;;;;;;;;4946789;29;20045;-68
2021/03/28 09:57:22;;;;;;;43.20;26.50;;;;;;;;;;4946771;29;20051;-68
2021/03/28 09:59:48;;;;;;;53.55;41.70;;;;;;;;;;4940699;29;20027;-68
2021/03/28 10:02:32;;;;;;;29.30;21.42;;;;;;;;;;4945231;29;20056;-68
2021/03/28 10:04:57;;;;;;;11.68;8.40;;;;;;;;;;4944515;29;20110;-66
2021/03/28 10:07:43;;;;;;;10.98;7.75;;;;;;;;;;4944153;28;20106;-68
2021/03/28 10:10:16;;;;;;;15.20;11.60;;;;;;;;;;4916727;28;20046;-68
2021/03/28 10:12:44;;;;;;;9.32;5.30;;;;;;;;;;4945341;29;20028;-68
2021/03/28 10:15:25;;;;;;;11.27;8.32;;;;;;;;;;4941421;28;20527;-69
2021/03/28 10:18:04;;;;;;;13.98;10.48;;;;;;;;;;4939747;29;20042;-68
2021/03/28 10:20:32;;;;;;;10.57;9.48;;;;;;;;;;4945275;28;20111;-68
2021/03/28 10:23:09;;;;;;;9.15;5.10;;;;;;;;;;4946573;28;20035;-68
2021/03/28 10:25:37;;;;;;;18.52;11.30;;;;;;;;;;4943571;28;20034;-68
2021/03/28 10:28:02;;;;;;;6.78;4.25;;;;;;;;;;4946798;29;20069;-68
2021/03/28 10:30:48;;;;;;;9.05;4.78;;;;;;;;;;4945324;28;20435;-68
2021/03/28 10:33:31;;;;;;;7.88;4.80;;;;;;;;;;4946414;28;20111;-68
2021/03/28 10:36:15;;;;;;;6.78;3.80;;;;;;;;;;4934118;29;20109;-68
2021/03/28 10:38:51;;;;;;;6.70;4.43;;;;;;;;;;4943789;29;20067;-68
2021/03/28 10:41:16;;;;;;;9.32;6.47;;;;;;;;;;4946171;28;20148;-69
2021/03/28 10:43:42;;;;;;;6.88;4.32;;;;;;;;;;4943253;29;20062;-69
2021/03/28 10:46:07;;;;;;;9.75;5.50;;;;;;;;;;4941214;28;20386;-67
2021/03/28 10:48:51;;;;;;;5.57;3.42;;;;;;;;;;4938539;28;20083;-67
2021/03/28 10:51:35;;;;;;;7.40;2.67;;;;;;;;;;4944799;28;20035;-67
2021/03/28 10:54:19;;;;;;;5.38;2.88;;;;;;;;;;4941463;29;20059;-68
2021/03/28 10:56:47;;;;;;;5.20;3.60;;;;;;;;;;4946005;29;20035;-68
2021/03/28 10:59:12;;;;;;;5.72;4.25;;;;;;;;;;4951085;28;20411;-68
2021/03/28 11:01:56;;;;;;;25.88;16.02;;;;;;;;;;4944385;29;20043;-68
2021/03/28 11:04:22;;;;;;;5.72;3.47;;;;;;;;;;4943644;29;20070;-69
2021/03/28 11:07:06;;;;;;;8.27;4.45;;;;;;;;;;4950016;29;20589;-68
2021/03/28 11:09:31;;;;;;;9.32;5.55;;;;;;;;;;4945848;28;20031;-69
2021/03/28 11:11:56;;;;;;;7.38;3.97;;;;;;;;;;4949986;29;20031;-69
2021/03/28 11:14:31;;;;;;;2.50;2.05;;;;;;;;;;4949378;28;20023;-68
2021/03/28 11:17:15;;;;;;;9.25;3.83;;;;;;;;;;4947302;29;20031;-69
2021/03/28 11:19:59;;;;;;;8.70;5.38;;;;;;;;;;4950678;28;20031;-69
2021/03/28 11:22:43;;;;;;;4.80;3.30;;;;;;;;;;4940786;29;20043;-66
2021/03/28 11:25:18;;;;;;;9.05;3.83;;;;;;;;;;4948609;28;20051;-67
2021/03/28 11:28:02;;;;;;;2.83;2.05;;;;;;;;;;4945280;28;20028;-68
2021/03/28 11:30:38;;;;;;;5.82;3.45;;;;;;;;;;4949304;28;20031;-68
2021/03/28 11:33:09;;;;;;;5.28;2.40;;;;;;;;;;4949676;28;20102;-69
2021/03/28 11:35:36;;;;;;;16.40;6.22;;;;;;;;;;4947504;28;20035;-68
2021/03/28 11:38:17;;;;;;;5.20;3.45;;;;;;;;;;4951559;28;20027;-69
2021/03/28 11:40:51;;;;;;;24.23;7.38;;;;;;;;;;4941831;29;20035;-68
2021/03/28 11:43:42;;;;;;;4.57;3.13;;;;;;;;;;4948783;28;20306;-68
2021/03/28 11:46:11;;;;;;;5.50;3.58;;;;;;;;;;4946090;29;20043;-67
2021/03/28 11:48:38;;;;;;;4.72;2.08;;;;;;;;;;4947840;28;20070;-72
2021/03/28 11:51:22;;;;;;;6.15;3.88;;;;;;;;;;4950157;28;20027;-72
2021/03/28 11:53:51;;;;;;;2.78;2.20;;;;;;;;;;4950231;28;20757;-72
2021/03/28 11:56:36;;;;;;;4.55;2.63;;;;;;;;;;4948115;28;20118;-73
2021/03/28 11:59:06;;;;;;;8.48;2.28;;;;;;;;;;4938457;29;20059;-73
2021/03/28 12:01:50;;;;;;;3.35;2.30;;;;;;;;;;4948468;28;20062;-72
2021/03/28 12:04:30;;;;;;;5.25;3.20;;;;;;;;;;4946795;28;20395;-72
2021/03/28 12:07:14;;;;;;;4.40;1.35;;;;;;;;;;4941166;29;20512;-72
2021/03/28 12:09:41;;;;;;;4.35;2.45;;;;;;;;;;4943688;29;20042;-73
2021/03/28 12:12:15;;;;;;;6.05;2.47;;;;;;;;;;4946185;28;20035;-72
2021/03/28 12:14:41;;;;;;;13.32;3.00;;;;;;;;;;4945017;29;20042;-72
2021/03/28 12:17:09;;;;;;;5.40;2.85;;;;;;;;;;4949718;28;20035;-73
2021/03/28 12:19:41;;;;;;;5.88;3.03;;;;;;;;;;4944316;28;20041;-72
2021/03/28 12:22:12;;;;;;;3.13;2.25;;;;;;;;;;4937990;28;20028;-72
2021/03/28 12:24:37;;;;;;;9.82;3.28;;;;;;;;;;4944461;29;20070;-72
2021/03/28 12:27:03;;;;;;;10.52;2.97;;;;;;;;;;4945734;28;20081;-73
2021/03/28 12:29:29;;;;;;;3.10;2.30;;;;;;;;;;4943703;28;20387;-73
2021/03/28 12:31:55;;;;;;;9.10;1.42;;;;;;;;;;4943666;28;20027;-73
2021/03/28 12:34:39;;;;;;;3.33;1.70;;;;;;;;;;4945295;29;20038;-73
2021/03/28 12:37:07;;;;;;;4.75;2.60;;;;;;;;;;4944801;29;20027;-73
2021/03/28 12:39:34;;;;;;;8.10;1.52;;;;;;;;;;4944090;28;20086;-73
2021/03/28 12:42:09;;;;;;;22.13;3.25;;;;;;;;;;4946074;28;20359;-74
2021/03/28 12:44:38;;;;;;;6.82;1.90;;;;;;;;;;4947833;28;20031;-74
2021/03/28 12:47:22;;;;;;;4.00;2.28;;;;;;;;;;4945514;28;20030;-74
2021/03/28 12:49:47;;;;;;;5.65;2.22;;;;;;;;;;4941873;29;20031;-73
2021/03/28 12:52:13;;;;;;;3.72;1.98;;;;;;;;;;4944196;28;20370;-74
2021/03/28 12:54:58;;;;;;;3.60;1.48;;;;;;;;;;4948560;28;20035;-74
2021/03/28 12:57:26;;;;;;;5.38;1.30;;;;;;;;;;4942020;29;20047;-73
2021/03/28 12:59:57;;;;;;;11.15;4.38;;;;;;;;;;4945707;28;20042;-74
2021/03/28 13:02:22;;;;;;;;;;;;;;;;;;4939553;28;20134;-73
2021/03/28 13:04:51;;;;;;;4.43;2.57;;;;;;;;;;4940081;28;20371;-73
2021/03/28 13:07:35;;;;;;;3.30;1.85;;;;;;;;;;4946738;29;20344;-74
2021/03/28 13:10:01;;;;;;;4.00;1.85;;;;;;;;;;4948092;28;20055;-75
2021/03/28 13:12:28;;;;;;;3.35;1.77;;;;;;;;;;4939949;28;20503;-74
2021/03/28 13:15:08;;;;;;;2.30;1.77;;;;;;;;;;4936021;29;20028;-74
2021/03/28 13:17:34;;;;;;;3.80;1.45;;;;;;;;;;4935698;29;20111;-74
2021/03/28 13:20:14;;;;;;;5.35;4.15;;;;;;;;;;4933082;29;20127;-74
2021/03/28 13:22:41;;;;;;;5.28;4.45;;;;;;;;;;4937733;29;20070;-73
2021/03/28 13:25:15;;;;;;;10.27;5.78;;;;;;;;;;4933894;28;20027;-74
2021/03/28 13:27:41;;;;;;;11.98;5.72;;;;;;;;;;4938768;29;20058;-75
2021/03/28 13:30:18;;;;;;;12.00;4.25;;;;;;;;;;4939798;28;20020;-75
2021/03/28 13:32:46;;;;;;;8.73;3.47;;;;;;;;;;4936751;29;20031;-76
2021/03/28 13:35:30;;;;;;;7.65;4.55;;;;;;;;;;4940101;28;20027;-75
2021/03/28 13:37:56;;;;;;;6.45;4.85;;;;;;;;;;4940155;29;20106;-74
2021/03/28 13:40:24;;;;;;;15.48;6.97;;;;;;;;;;4938756;29;20020;-73
2021/03/28 13:42:52;;;;;;;9.68;5.47;;;;;;;;;;4937811;29;20497;-74
2021/03/28 13:45:17;;;;;;;12.85;5.78;;;;;;;;;;4937817;28;20020;-73
2021/03/28 13:47:53;;;;;;;9.35;8.15;;;;;;;;;;4940795;29;20023;-74
2021/03/28 13:50:27;;;;;;;8.73;4.60;;;;;;;;;;4935985;29;20019;-73
2021/03/28 13:52:53;;;;;;;7.45;5.28;;;;;;;;;;4941864;29;20023;-74
2021/03/28 13:55:33;;;;;;;7.35;3.25;;;;;;;;;;4939706;28;20012;-74
2021/03/28 13:58:17;;;;;;;4.93;3.95;;;;;;;;;;4942512;29;20066;-75
2021/03/28 14:00:43;;;;;;;3.05;2.50;;;;;;;;;;4939259;28;20039;-74
2021/03/28 14:03:26;;;;;;;7.72;3.28;;;;;;;;;;4945822;29;20054;-72
2021/03/28 14:05:51;;;;;;;12.73;5.68;;;;;;;;;;4946321;28;20028;-72
2021/03/28 14:08:19;;;;;;;4.22;2.33;;;;;;;;;;4942361;29;20031;-74
2021/03/28 14:10:52;;;;;;;5.90;4.82;;;;;;;;;;4941296;29;20432;-73
2021/03/28 14:13:24;;;;;;;5.45;3.05;;;;;;;;;;4937133;29;20040;-75
2021/03/28 14:16:01;;;;;;;5.93;3.50;;;;;;;;;;4933410;29;20086;-74
2021/03/28 14:18:45;;;;;;;6.45;2.63;;;;;;;;;;4939940;29;20031;-75
2021/03/28 14:21:25;;;;;;;3.13;2.83;;;;;;;;;;4938581;28;20035;-73
2021/03/28 14:24:17;;;;;;;2.17;1.70;;;;;;;;;;4940720;29;20433;-74
2021/03/28 14:27:01;;;;;;;3.25;2.00;;;;;;;;;;4933082;29;20129;-75
2021/03/28 14:29:46;;;;;;;4.78;3.38;;;;;;;;;;4944552;29;20028;-75
2021/03/28 14:32:11;;;;;;;5.32;3.92;;;;;;;;;;4936991;29;20031;-74
2021/03/28 14:34:56;;;;;;;4.05;3.33;;;;;;;;;;4945273;29;20855;-74
2021/03/28 14:37:36;;;;;;;8.00;4.57;;;;;;;;;;4942557;29;20028;-73
2021/03/28 14:40:20;;;;;;;6.82;3.90;;;;;;;;;;4942972;28;20838;-74
2021/03/28 14:43:04;;;;;;;3.38;2.85;;;;;;;;;;4943002;29;20063;-74
2021/03/28 14:45:48;;;;;;;9.60;5.05;;;;;;;;;;4943631;29;20431;-73
2021/03/28 14:48:20;;;;;;;5.75;3.95;;;;;;;;;;4937486;29;20382;-74
2021/03/28 14:51:00;;;;;;;5.68;3.20;;;;;;;;;;4941000;28;20039;-73
2021/03/28 14:54:01;;;;;;;8.32;2.95;;;;;;;;;;4939907;29;20063;-74
2021/03/28 14:56:41;;;;;;;5.25;4.20;;;;;;;;;;4861408;29;20033;-74
2021/03/28 14:59:06;;;;;;;5.03;1.80;;;;;;;;;;4931063;29;20510;-74
2021/03/28 15:01:32;;;;;;;22.17;3.43;;;;;;;;;;4940758;29;20106;-73
2021/03/28 15:03:57;;;;;;;3.75;3.13;;;;;;;;;;4938424;29;20724;-74
2021/03/28 15:06:22;;;;;;;4.13;3.10;;;;;;;;;;4939475;29;20059;-74
2021/03/28 15:08:52;;;;;;;8.45;3.50;;;;;;;;;;4939890;29;20114;-74
2021/03/28 15:11:21;;;;;;;12.47;3.10;;;;;;;;;;4938526;29;20054;-74
2021/03/28 15:13:51;;;;;;;3.00;2.50;;;;;;;;;;4945067;28;20730;-72
2021/03/28 15:16:16;;;;;;;6.05;4.78;;;;;;;;;;4946068;28;20324;-71
2021/03/28 15:18:48;;;;;;;3.67;2.33;;;;;;;;;;4949696;28;20064;-72